createdAt,value
2018-02-09T00:01:35.071Z,79.30
2018-02-09T00:04:03.992Z,79.40
2018-02-09T00:06:32.106Z,79.50
2018-02-09T00:09:00.255Z,79.60
2018-02-09T00:11:28.404Z,79.50
2018-02-09T00:13:56.555Z,79.50
2018-02-09T00:16:25.455Z,78.70
2018-02-09T00:18:53.610Z,78.80
2018-02-09T00:21:21.790Z,78.30
2018-02-09T00:23:50.004Z,78.20
2018-02-09T00:26:18.130Z,78.20
2018-02-09T00:28:47.033Z,79.00
2018-02-09T00:31:15.922Z,78.40
2018-02-09T00:33:44.842Z,78.80
2018-02-09T00:36:12.977Z,78.70
2018-02-09T00:38:41.116Z,78.60
2018-02-09T00:41:09.349Z,78.60
2018-02-09T00:43:38.259Z,78.10
2018-02-09T00:46:06.408Z,78.10
2018-02-09T00:48:35.283Z,77.50
2018-02-09T00:51:04.180Z,77.80
2018-02-09T00:53:33.058Z,78.20
2018-02-09T00:56:02.091Z,78.50
2018-02-09T00:58:30.207Z,78.50
2018-02-09T01:00:58.355Z,78.60
2018-02-09T01:03:26.566Z,78.80
2018-02-09T01:05:55.799Z,78.90
2018-02-09T01:08:24.669Z,78.90
2018-02-09T01:10:53.549Z,78.70
2018-02-09T01:13:22.474Z,78.20
2018-02-09T01:15:50.597Z,78.20
2018-02-09T01:18:19.598Z,78.60
2018-02-09T01:20:48.485Z,78.50
2018-02-09T01:23:17.415Z,78.40
2018-02-09T01:25:45.529Z,78.40
2018-02-09T01:28:13.659Z,78.50
2018-02-09T01:30:41.800Z,78.70
2018-02-09T01:33:10.698Z,78.60
2018-02-09T01:35:39.592Z,78.50
2018-02-09T01:38:07.724Z,78.50
2018-02-09T01:40:35.879Z,78.40
2018-02-09T01:43:04.008Z,78.20
2018-02-09T01:45:32.155Z,78.40
2018-02-09T01:48:00.295Z,78.30
2018-02-09T01:50:28.511Z,78.30
2018-02-09T01:52:57.405Z,77.90
2018-02-09T01:55:26.394Z,78.20
2018-02-09T01:57:55.290Z,78.20
2018-02-09T02:00:24.271Z,78.20
2018-02-09T02:02:53.158Z,78.40
2018-02-09T02:05:22.162Z,78.70
2018-02-09T02:07:51.259Z,78.60
2018-02-09T02:10:20.241Z,78.40
2018-02-09T02:12:48.349Z,78.30
2018-02-09T02:15:16.505Z,78.30
2018-02-09T02:17:45.393Z,78.50
2018-02-09T02:20:13.561Z,78.50
2018-02-09T02:22:42.485Z,78.40
2018-02-09T02:25:10.606Z,78.40
2018-02-09T02:27:38.768Z,78.30
2018-02-09T02:30:06.934Z,78.50
2018-02-09T02:32:35.079Z,78.50
2018-02-09T02:35:03.243Z,78.30
2018-02-09T02:37:32.132Z,78.40
2018-02-09T02:40:00.617Z,78.30
2018-02-09T02:42:28.738Z,78.20
2018-02-09T02:44:56.886Z,78.50
2018-02-09T02:47:25.009Z,78.80
2018-02-09T02:49:53.927Z,78.70
2018-02-09T02:52:22.055Z,78.70
2018-02-09T02:54:50.960Z,78.80
2018-02-09T02:57:19.851Z,78.30
2018-02-09T02:59:48.763Z,78.10
2018-02-09T03:02:16.897Z,78.10
2018-02-09T03:04:45.005Z,78.30
2018-02-09T03:07:13.135Z,78.40
2018-02-09T03:09:41.273Z,78.60
2018-02-09T03:12:09.419Z,78.70
2018-02-09T03:14:37.533Z,79.10
2018-02-09T03:17:05.674Z,78.80
2018-02-09T03:19:33.800Z,78.60
2018-02-09T03:22:01.971Z,78.50
2018-02-09T03:24:30.102Z,78.70
2018-02-09T03:26:58.257Z,78.70
2018-02-09T03:29:26.404Z,78.40
2018-02-09T03:31:55.294Z,78.40
2018-02-09T03:34:24.193Z,78.00
2018-02-09T03:36:52.327Z,78.00
2018-02-09T03:39:20.466Z,78.20
2018-02-09T03:41:48.597Z,78.30
2018-02-09T03:44:16.780Z,78.40
2018-02-09T03:46:45.079Z,77.80
2018-02-09T03:49:13.946Z,78.00
2018-02-09T03:51:42.854Z,78.20
2018-02-09T03:54:10.969Z,78.20
2018-02-09T03:56:39.109Z,78.40
2018-02-09T03:59:07.249Z,78.30
2018-02-09T04:01:36.442Z,78.50
2018-02-09T04:04:05.331Z,78.60
2018-02-09T04:06:34.222Z,78.50
2018-02-09T04:09:03.138Z,78.50
2018-02-09T04:11:31.249Z,78.50
2018-02-09T04:14:00.923Z,79.00
2018-02-09T04:16:29.028Z,79.00
2018-02-09T04:18:57.175Z,79.10
2018-02-09T04:21:25.334Z,79.10
2018-02-09T04:23:53.471Z,79.30
2018-02-09T04:26:22.357Z,79.30
2018-02-09T04:28:51.260Z,79.50
2018-02-09T04:31:20.209Z,79.40
2018-02-09T04:33:48.289Z,79.40
2018-02-09T04:36:16.454Z,79.50
2018-02-09T04:38:44.576Z,79.50
2018-02-09T04:41:12.696Z,79.60
2018-02-09T04:43:40.834Z,79.20
2018-02-09T04:46:09.015Z,79.20
2018-02-09T04:48:37.123Z,79.30
2018-02-09T04:51:05.245Z,79.30
2018-02-09T04:53:33.393Z,79.30
2018-02-09T04:56:02.304Z,79.20
2018-02-09T04:58:30.429Z,79.30
2018-02-09T05:00:58.543Z,78.70
2018-02-09T05:03:26.677Z,78.10
2018-02-09T05:05:54.817Z,78.00
2018-02-09T05:08:22.951Z,78.00
2018-02-09T05:10:51.873Z,78.10
2018-02-09T05:13:19.996Z,78.20
2018-02-09T05:15:48.908Z,78.40
2018-02-09T05:18:17.036Z,78.10
2018-02-09T05:20:45.166Z,78.00
2018-02-09T05:23:13.313Z,77.80
2018-02-09T05:25:42.206Z,78.10
2018-02-09T05:28:11.117Z,77.80
2018-02-09T05:30:39.241Z,77.80
2018-02-09T05:33:07.394Z,78.00
2018-02-09T05:35:35.514Z,77.90
2018-02-09T05:38:04.416Z,77.70
2018-02-09T05:40:32.551Z,77.70
2018-02-09T05:43:00.684Z,77.50
2018-02-09T05:45:28.818Z,77.80
2018-02-09T05:47:57.707Z,78.00
2018-02-09T05:50:26.613Z,78.30
2018-02-09T05:52:54.759Z,78.30
2018-02-09T05:55:22.901Z,78.30
2018-02-09T05:57:51.017Z,78.40
2018-02-09T06:00:19.920Z,78.50
2018-02-09T06:02:48.076Z,78.50
2018-02-09T06:05:16.991Z,78.60
2018-02-09T06:07:45.131Z,78.60
2018-02-09T06:10:14.013Z,78.20
2018-02-09T06:12:42.164Z,78.20
2018-02-09T06:15:10.290Z,78.40
2018-02-09T06:17:38.415Z,78.60
2018-02-09T06:20:06.579Z,78.50
2018-02-09T06:22:34.713Z,78.40
2018-02-09T06:25:02.856Z,78.30
2018-02-09T06:27:31.757Z,79.10
2018-02-09T06:29:59.900Z,78.30
2018-02-09T06:32:28.033Z,78.60
2018-02-09T06:34:56.205Z,78.60
2018-02-09T06:37:24.338Z,78.70
2018-02-09T06:39:53.243Z,78.90
2018-02-09T06:42:21.381Z,78.80
2018-02-09T06:44:49.506Z,78.90
2018-02-09T06:47:17.663Z,78.70
2018-02-09T06:49:45.772Z,78.10
2018-02-09T06:52:13.925Z,78.00
2018-02-09T06:54:42.068Z,77.90
2018-02-09T06:57:10.198Z,78.20
2018-02-09T06:59:38.339Z,78.40
2018-02-09T07:02:06.484Z,77.90
2018-02-09T07:04:34.604Z,77.70
2018-02-09T07:07:02.738Z,77.50
2018-02-09T07:09:30.858Z,77.60
2018-02-09T07:11:59.000Z,77.70
2018-02-09T07:14:27.155Z,77.80
2018-02-09T07:16:56.042Z,77.80
2018-02-09T07:19:24.181Z,77.80
2018-02-09T07:21:52.315Z,77.80
2018-02-09T07:24:20.436Z,78.00
2018-02-09T07:26:49.349Z,77.90
2018-02-09T07:29:18.245Z,77.80
2018-02-09T07:31:46.390Z,77.80
2018-02-09T07:34:15.290Z,77.10
2018-02-09T07:36:44.208Z,77.30
2018-02-09T07:39:12.346Z,77.30
2018-02-09T07:41:41.262Z,77.10
2018-02-09T07:44:10.130Z,77.20
2018-02-09T07:46:39.020Z,77.10
2018-02-09T07:49:07.932Z,76.80
2018-02-09T07:51:36.054Z,76.80
2018-02-09T07:54:04.200Z,77.00
2018-02-09T07:56:32.347Z,77.50
2018-02-09T07:59:00.476Z,77.50
2018-02-09T08:01:28.612Z,76.80
2018-02-09T08:03:56.734Z,76.80
2018-02-09T08:06:25.658Z,76.70
2018-02-09T08:08:53.799Z,76.70
2018-02-09T08:11:21.919Z,76.70
2018-02-09T08:13:50.087Z,76.60
2018-02-09T08:16:18.245Z,76.80
2018-02-09T08:18:46.410Z,76.70
2018-02-09T08:21:15.290Z,76.40
2018-02-09T08:23:44.218Z,76.90
2018-02-09T08:26:12.345Z,76.20
2018-02-09T08:28:41.234Z,75.90
2018-02-09T08:31:09.395Z,75.90
2018-02-09T08:33:37.526Z,75.60
2018-02-09T08:36:05.665Z,76.20
2018-02-09T08:38:34.573Z,76.20
2018-02-09T08:41:02.713Z,76.10
2018-02-09T08:43:31.667Z,75.90
2018-02-09T08:45:59.774Z,75.80
2018-02-09T08:48:27.913Z,75.90
2018-02-09T08:50:56.049Z,74.80
2018-02-09T08:53:24.217Z,74.00
2018-02-09T08:55:52.363Z,75.20
2018-02-09T08:58:20.514Z,74.80
2018-02-09T09:00:49.426Z,74.20
2018-02-09T09:03:17.563Z,74.20
2018-02-09T09:05:45.695Z,73.30
2018-02-09T09:08:13.858Z,73.10
2018-02-09T09:10:42.764Z,73.10
2018-02-09T09:13:10.894Z,73.00
2018-02-09T09:15:39.034Z,72.80
2018-02-09T09:18:07.956Z,74.10
2018-02-09T09:20:36.102Z,73.50
2018-02-09T09:23:04.252Z,73.00
2018-02-09T09:25:32.400Z,71.70
2018-02-09T09:28:01.349Z,72.20
2018-02-09T09:30:29.454Z,72.20
2018-02-09T09:32:58.421Z,72.60
2018-02-09T09:35:26.535Z,72.60
2018-02-09T09:37:54.694Z,73.00
2018-02-09T09:40:23.586Z,73.20
2018-02-09T09:42:52.753Z,72.90
2018-02-09T09:45:21.001Z,72.90
2018-02-09T09:47:49.150Z,72.90
2018-02-09T09:50:17.303Z,72.30
2018-02-09T09:52:46.185Z,71.20
2018-02-09T09:55:15.124Z,71.70
2018-02-09T09:57:43.259Z,71.70
2018-02-09T10:00:12.157Z,71.80
2018-02-09T10:02:40.284Z,71.80
2018-02-09T10:05:08.415Z,71.90
2018-02-09T10:07:36.568Z,70.10
2018-02-09T10:10:05.467Z,70.60
2018-02-09T10:12:33.610Z,70.50
2018-02-09T10:15:02.143Z,69.90
2018-02-09T10:17:30.297Z,70.80
2018-02-09T10:19:58.430Z,70.20
2018-02-09T10:22:26.564Z,69.70
2018-02-09T10:24:54.739Z,70.50
2018-02-09T10:27:22.857Z,70.90
2018-02-09T10:29:51.789Z,70.00
2018-02-09T10:32:19.905Z,70.00
2018-02-09T10:34:48.056Z,70.20
2018-02-09T10:37:16.191Z,69.30
2018-02-09T10:39:44.666Z,69.70
2018-02-09T10:42:13.645Z,69.00
2018-02-09T10:44:41.810Z,69.00
2018-02-09T10:47:10.010Z,69.20
2018-02-09T10:49:38.410Z,69.60
2018-02-09T10:52:06.697Z,70.40
2018-02-09T10:54:35.592Z,70.20
2018-02-09T10:57:03.751Z,69.70
2018-02-09T10:59:31.886Z,69.20
2018-02-09T11:02:00.047Z,69.10
2018-02-09T11:04:28.949Z,68.90
2018-02-09T11:06:57.072Z,68.90
2018-02-09T11:09:30.919Z,70.20
2018-02-09T11:12:01.575Z,69.00
2018-02-09T11:14:30.479Z,69.70
2018-02-09T11:16:58.640Z,69.60
2018-02-09T11:19:26.791Z,70.00
2018-02-09T11:21:55.726Z,69.80
2018-02-09T11:24:23.828Z,69.70
2018-02-09T11:26:51.996Z,70.00
2018-02-09T11:29:20.140Z,70.40
2018-02-09T11:31:48.283Z,69.70
2018-02-09T11:34:16.426Z,69.40
2018-02-09T11:36:44.576Z,69.80
2018-02-09T11:39:12.698Z,71.00
2018-02-09T11:41:41.603Z,70.30
2018-02-09T11:44:09.777Z,70.30
2018-02-09T11:46:37.912Z,70.40
2018-02-09T11:49:06.823Z,70.20
2018-02-09T11:51:34.967Z,70.20
2018-02-09T11:54:03.140Z,70.40
2018-02-09T11:56:32.066Z,70.30
2018-02-09T11:59:00.200Z,69.60
2018-02-09T12:01:29.148Z,69.80
2018-02-09T12:03:57.270Z,69.70
2018-02-09T12:06:25.422Z,69.90
2018-02-09T12:08:53.589Z,69.80
2018-02-09T12:11:21.791Z,69.90
2018-02-09T12:13:49.911Z,69.00
2018-02-09T12:16:18.038Z,69.20
2018-02-09T12:18:46.957Z,68.80
2018-02-09T12:21:15.119Z,68.80
2018-02-09T12:23:43.277Z,69.60
2018-02-09T12:26:12.203Z,69.50
2018-02-09T12:28:40.356Z,69.50
2018-02-09T12:31:08.503Z,69.50
2018-02-09T12:33:36.677Z,69.30
2018-02-09T12:36:05.589Z,70.10
2018-02-09T12:38:33.761Z,70.10
2018-02-09T12:41:01.905Z,70.80
2018-02-09T12:43:30.030Z,70.60
2018-02-09T12:45:58.187Z,70.40
2018-02-09T12:48:26.309Z,70.40
2018-02-09T12:50:54.458Z,70.00
2018-02-09T12:53:22.604Z,68.80
2018-02-09T12:55:50.743Z,69.60
2018-02-09T12:58:18.877Z,70.00
2018-02-09T13:00:47.067Z,69.90
2018-02-09T13:03:15.218Z,69.80
2018-02-09T13:05:43.340Z,70.80
2018-02-09T13:08:12.270Z,70.10
2018-02-09T13:10:40.378Z,70.10
2018-02-09T13:13:11.178Z,69.80
2018-02-09T13:15:39.343Z,70.00
2018-02-09T13:18:07.486Z,70.60
2018-02-09T13:20:35.623Z,70.20
2018-02-09T13:26:06.324Z,70.60
2018-02-09T13:28:46.351Z,70.60
2018-02-09T13:31:15.265Z,70.50
2018-02-09T13:33:44.147Z,70.10
2018-02-09T13:36:15.251Z,70.00
2018-02-09T13:38:43.381Z,70.10
2018-02-09T13:41:11.578Z,70.80
2018-02-09T13:43:40.484Z,71.00
2018-02-09T13:46:08.644Z,71.00
2018-02-09T13:48:36.799Z,70.50
2018-02-09T13:51:04.933Z,68.60
2018-02-09T13:53:33.835Z,69.50
2018-02-09T13:56:02.719Z,69.60
2018-02-09T13:58:31.641Z,70.30
2018-02-09T14:00:59.817Z,70.30
2018-02-09T14:03:28.004Z,70.30
2018-02-09T14:05:56.881Z,69.80
2018-02-09T14:08:25.015Z,69.80
2018-02-09T14:10:53.951Z,70.00
2018-02-09T14:13:22.091Z,69.90
2018-02-09T14:15:50.322Z,69.80
2018-02-09T14:18:18.487Z,69.30
2018-02-09T14:20:46.665Z,70.10
2018-02-09T14:23:14.782Z,70.10
2018-02-09T14:25:42.958Z,70.10
2018-02-09T14:28:11.097Z,69.80
2018-02-09T14:30:39.267Z,69.90
2018-02-09T14:33:07.423Z,69.70
2018-02-09T14:35:35.563Z,70.10
2018-02-09T14:38:03.719Z,70.10
2018-02-09T14:40:31.916Z,70.00
2018-02-09T14:43:00.077Z,70.20
2018-02-09T14:45:28.187Z,70.70
2018-02-09T14:47:56.346Z,70.70
2018-02-09T14:50:24.570Z,70.10
2018-02-09T14:52:52.742Z,70.50
2018-02-09T14:55:21.038Z,70.70
2018-02-09T14:57:49.191Z,70.90
2018-02-09T15:00:17.350Z,71.10
2018-02-09T15:02:45.475Z,71.70
2018-02-09T15:05:13.627Z,71.20
2018-02-09T15:07:42.564Z,70.50
2018-02-09T15:10:10.711Z,70.50
2018-02-09T15:12:38.865Z,70.20
2018-02-09T15:15:07.014Z,71.20
2018-02-09T15:17:35.157Z,71.00
2018-02-09T15:20:03.309Z,71.70
2018-02-09T15:22:31.436Z,71.60
2018-02-09T15:25:00.326Z,72.00
2018-02-09T15:27:29.231Z,71.90
2018-02-09T15:29:58.132Z,72.10
2018-02-09T15:32:26.259Z,72.00
2018-02-09T15:34:54.472Z,72.10
2018-02-09T15:37:22.634Z,72.00
2018-02-09T15:39:50.831Z,71.80
2018-02-09T15:42:18.974Z,72.10
2018-02-09T15:44:47.890Z,72.00
2018-02-09T15:47:16.023Z,71.90
2018-02-09T15:49:44.141Z,72.40
2018-02-09T15:52:12.296Z,72.50
2018-02-09T15:54:40.459Z,72.70
2018-02-09T15:57:09.373Z,72.80
2018-02-09T15:59:37.516Z,72.80
2018-02-09T16:02:05.645Z,72.80
2018-02-09T16:04:34.788Z,73.50
2018-02-09T16:07:02.933Z,73.20
2018-02-09T16:09:31.101Z,73.00
2018-02-09T16:11:59.239Z,73.10
2018-02-09T16:14:27.366Z,72.90
2018-02-09T16:16:56.282Z,73.20
2018-02-09T16:19:24.433Z,73.20
2018-02-09T16:21:53.358Z,73.10
2018-02-09T16:24:21.498Z,73.00
2018-02-09T16:26:50.407Z,73.50
2018-02-09T16:29:18.546Z,73.50
2018-02-09T16:31:46.733Z,73.90
2018-02-09T16:34:15.709Z,74.00
2018-02-09T16:36:43.866Z,74.00
2018-02-09T16:39:12.045Z,74.50
2018-02-09T16:41:40.191Z,74.50
2018-02-09T16:44:08.362Z,74.60
2018-02-09T16:46:36.527Z,74.50
2018-02-09T16:49:04.653Z,74.40
2018-02-09T16:51:33.562Z,75.00
2018-02-09T16:54:01.741Z,75.00
2018-02-09T16:56:29.879Z,74.90
2018-02-09T16:58:58.804Z,74.60
2018-02-09T17:01:26.944Z,74.50
2018-02-09T17:03:55.844Z,74.80
2018-02-09T17:06:24.749Z,74.30
2018-02-09T17:08:53.649Z,74.60
2018-02-09T17:11:21.933Z,74.60
2018-02-09T17:13:50.047Z,74.60
2018-02-09T17:16:18.198Z,75.30
2018-02-09T17:18:46.362Z,74.90
2018-02-09T17:21:14.484Z,75.40
2018-02-09T17:23:43.399Z,76.00
2018-02-09T17:26:11.520Z,76.00
2018-02-09T17:28:39.663Z,75.90
2018-02-09T17:31:08.623Z,76.10
2018-02-09T17:33:37.533Z,76.60
2018-02-09T17:36:05.746Z,76.50
2018-02-09T17:38:33.866Z,76.40
2018-02-09T17:41:02.730Z,76.20
2018-02-09T17:43:30.901Z,76.10
2018-02-09T17:45:59.052Z,76.00
2018-02-09T17:48:27.252Z,76.10
2018-02-09T17:50:55.389Z,76.10
2018-02-09T17:53:23.523Z,76.40
2018-02-09T17:55:51.666Z,76.70
2018-02-09T17:58:19.805Z,76.50
2018-02-09T18:00:48.375Z,76.40
2018-02-09T18:03:16.606Z,76.30
2018-02-09T18:05:44.745Z,76.00
2018-02-09T18:08:12.977Z,76.60
2018-02-09T18:10:41.166Z,75.60
2018-02-09T18:13:09.346Z,75.00
2018-02-09T18:15:37.494Z,75.40
2018-02-09T18:18:06.419Z,75.60
2018-02-09T18:20:34.628Z,75.60
2018-02-09T18:23:02.743Z,74.90
2018-02-09T18:25:30.946Z,75.30
2018-02-09T18:27:59.049Z,75.20
2018-02-09T18:30:27.195Z,75.50
2018-02-09T18:32:55.349Z,76.50
2018-02-09T18:35:23.581Z,75.50
2018-02-09T18:37:51.702Z,75.60
2018-02-09T18:40:19.857Z,75.60
2018-02-09T18:42:47.997Z,75.00
2018-02-09T18:45:16.929Z,75.30
2018-02-09T18:47:45.085Z,75.30
2018-02-09T18:50:13.273Z,74.90
2018-02-09T18:52:41.418Z,75.10
2018-02-09T18:55:09.623Z,75.40
2018-02-09T18:57:37.783Z,75.30
2018-02-09T19:00:05.910Z,75.00
2018-02-09T19:02:34.819Z,74.90
2018-02-09T19:05:02.980Z,74.80
2018-02-09T19:07:31.919Z,75.20
2018-02-09T19:10:00.048Z,75.10
2018-02-09T19:12:29.027Z,75.20
2018-02-09T19:14:57.147Z,75.10
2018-02-09T19:17:25.321Z,75.80
2018-02-09T19:19:53.505Z,75.10
2018-02-09T19:22:22.407Z,75.10
2018-02-09T19:24:50.541Z,75.00
2018-02-09T19:27:18.668Z,74.90
2018-02-09T19:29:46.897Z,75.10
2018-02-09T19:32:15.111Z,74.90
2018-02-09T19:34:43.352Z,74.70
2018-02-09T19:37:11.571Z,74.50
2018-02-09T19:39:39.809Z,74.50
2018-02-09T19:42:08.308Z,74.20
2018-02-09T19:44:37.472Z,74.80
2018-02-09T19:47:05.625Z,74.80
2018-02-09T19:49:33.813Z,74.50
2018-02-09T19:52:02.012Z,74.50
2018-02-09T19:54:30.209Z,75.00
2018-02-09T19:56:58.358Z,74.40
2018-02-09T19:59:26.527Z,74.40
2018-02-09T20:01:54.721Z,74.60
2018-02-09T20:04:22.906Z,75.10
2018-02-09T20:06:51.085Z,75.10
2018-02-09T20:09:19.274Z,74.90
2018-02-09T20:11:47.535Z,75.30
2018-02-09T20:14:15.694Z,74.90
2018-02-09T20:16:43.913Z,74.90
2018-02-09T20:19:12.099Z,74.80
2018-02-09T20:21:40.273Z,74.10
2018-02-09T20:24:08.454Z,74.20
2018-02-09T20:26:37.652Z,74.30
2018-02-09T20:29:05.807Z,74.40
2018-02-09T20:31:34.023Z,74.50
2018-02-09T20:34:02.411Z,74.20
2018-02-09T20:36:30.609Z,74.70
2018-02-09T20:39:02.194Z,75.60
2018-02-09T20:41:35.144Z,75.10
2018-02-09T20:44:03.401Z,75.10
2018-02-09T20:46:31.592Z,75.10
2018-02-09T20:49:00.561Z,74.90
2018-02-09T20:51:28.730Z,74.90
2018-02-09T20:53:56.984Z,74.50
2018-02-09T20:56:25.161Z,74.80
2018-02-09T20:58:54.932Z,74.80
2018-02-09T21:01:23.128Z,75.50
2018-02-09T21:03:51.335Z,74.80
2018-02-09T21:06:19.525Z,74.70
2018-02-09T21:08:47.744Z,75.00
2018-02-09T21:11:15.908Z,75.20
2018-02-09T21:13:44.086Z,75.20
2018-02-09T21:16:12.241Z,75.50
2018-02-09T21:18:40.554Z,75.40
2018-02-09T21:21:08.699Z,75.30
2018-02-09T21:23:36.895Z,75.40
2018-02-09T21:26:05.084Z,75.40
2018-02-09T21:28:33.281Z,75.10
2018-02-09T21:31:01.470Z,75.30
2018-02-09T21:33:29.629Z,75.30
2018-02-09T21:35:58.606Z,76.60
2018-02-09T21:38:27.080Z,75.90
2018-02-09T21:40:55.477Z,76.00
2018-02-09T21:43:24.398Z,75.90
2018-02-09T21:45:53.563Z,75.90
2018-02-09T21:48:21.751Z,76.20
2018-02-09T21:50:50.709Z,75.90
2018-02-09T21:53:18.847Z,75.80
2018-02-09T21:55:47.003Z,76.10
2018-02-09T21:58:15.613Z,76.20
2018-02-09T22:00:44.667Z,75.80
2018-02-09T22:03:13.582Z,75.40
2018-02-09T22:05:41.702Z,75.50
2018-02-09T22:08:09.851Z,74.20
2018-02-09T22:10:39.481Z,74.80
2018-02-09T22:13:07.669Z,75.10
2018-02-09T22:15:35.826Z,74.90
2018-02-09T22:18:03.970Z,74.80
2018-02-09T22:20:32.115Z,74.20
2018-02-09T22:23:00.334Z,74.00
2018-02-09T22:25:28.471Z,74.30
2018-02-09T22:27:56.609Z,73.90
2018-02-09T22:30:24.764Z,74.30
2018-02-09T22:32:53.045Z,74.50
2018-02-09T22:35:21.415Z,74.90
2018-02-09T22:37:49.541Z,75.00
2018-02-09T22:40:17.670Z,74.40
2018-02-09T22:42:45.814Z,74.70
2018-02-09T22:45:13.957Z,74.90
2018-02-09T22:47:42.094Z,74.60
2018-02-09T22:50:11.030Z,74.30
2018-02-09T22:52:39.171Z,74.30
2018-02-09T22:55:08.106Z,73.30
2018-02-09T22:57:36.226Z,73.40
2018-02-09T23:00:05.138Z,72.20
2018-02-09T23:02:34.299Z,72.20
2018-02-09T23:05:02.431Z,73.10
2018-02-09T23:07:30.697Z,73.50
2018-02-09T23:09:58.987Z,73.50
2018-02-09T23:12:27.126Z,73.80
2018-02-09T23:14:55.298Z,74.10
2018-02-09T23:17:25.025Z,74.10
2018-02-09T23:19:53.152Z,74.00
2018-02-09T23:22:21.316Z,74.20
2018-02-09T23:24:49.448Z,74.60
2018-02-09T23:27:17.854Z,74.80
2018-02-09T23:29:46.008Z,74.70
2018-02-09T23:32:14.512Z,74.70
2018-02-09T23:34:42.635Z,74.80
2018-02-09T23:37:10.828Z,74.90
2018-02-09T23:39:38.984Z,75.10
2018-02-09T23:42:07.110Z,75.00
2018-02-09T23:44:35.335Z,74.70
2018-02-09T23:47:04.290Z,76.00
2018-02-09T23:49:34.214Z,75.50
2018-02-09T23:52:03.239Z,75.50
2018-02-09T23:54:31.379Z,75.50
2018-02-09T23:57:00.274Z,75.50
2018-02-09T23:59:28.420Z,75.50
